createdAt,value
2018-09-20T00:00:27.823Z,31.93
2018-09-20T00:03:01.248Z,31.57
2018-09-20T00:05:34.664Z,32.10
2018-09-20T00:08:08.397Z,32.25
2018-09-20T00:10:41.882Z,31.65
2018-09-20T00:13:15.275Z,31.60
2018-09-20T00:15:48.820Z,31.55
2018-09-20T00:18:22.223Z,32.53
2018-09-20T00:20:55.643Z,31.57
2018-09-20T00:23:29.042Z,31.77
2018-09-20T00:26:02.465Z,31.33
2018-09-20T00:28:35.931Z,32.53
2018-09-20T00:31:10.428Z,31.37
2018-09-20T00:33:43.839Z,32.13
2018-09-20T00:36:17.259Z,31.70
2018-09-20T00:38:50.692Z,31.50
2018-09-20T00:41:24.111Z,32.38
2018-09-20T00:43:57.506Z,31.77
2018-09-20T00:46:30.922Z,31.70
2018-09-20T00:49:04.371Z,31.82
2018-09-20T00:51:37.797Z,31.85
2018-09-20T00:54:11.201Z,32.05
2018-09-20T00:56:44.663Z,31.42
2018-09-20T00:59:18.091Z,32.33
2018-09-20T01:01:51.514Z,32.08
2018-09-20T01:04:24.916Z,32.15
2018-09-20T01:06:58.335Z,31.87
2018-09-20T01:09:31.736Z,32.83
2018-09-20T01:12:05.195Z,31.80
2018-09-20T01:14:38.598Z,31.70
2018-09-20T01:17:12.031Z,32.17
2018-09-20T01:19:45.443Z,31.97
2018-09-20T01:22:18.872Z,31.68
2018-09-20T01:24:52.292Z,32.20
2018-09-20T01:27:25.720Z,32.67
2018-09-20T01:29:59.143Z,32.00
2018-09-20T01:32:32.570Z,31.40
2018-09-20T01:35:06.019Z,31.50
2018-09-20T01:37:39.445Z,31.42
2018-09-20T01:40:12.859Z,32.23
2018-09-20T01:42:46.287Z,31.65
2018-09-20T01:45:19.710Z,31.85
2018-09-20T01:47:53.139Z,31.75
2018-09-20T01:50:26.543Z,31.62
2018-09-20T01:53:00.021Z,31.40
2018-09-20T01:55:33.452Z,32.13
2018-09-20T01:58:06.876Z,31.75
2018-09-20T02:00:40.308Z,32.42
2018-09-20T02:03:13.722Z,32.00
2018-09-20T02:05:47.147Z,32.53
2018-09-20T02:08:20.559Z,32.23
2018-09-20T02:10:53.959Z,32.35
2018-09-20T02:13:27.394Z,32.25
2018-09-20T02:16:00.794Z,32.20
2018-09-20T02:18:34.207Z,32.13
2018-09-20T02:21:07.630Z,32.05
2018-09-20T02:23:41.048Z,32.08
2018-09-20T02:26:14.463Z,32.55
2018-09-20T02:28:48.195Z,32.25
2018-09-20T02:31:21.611Z,32.17
2018-09-20T02:33:55.028Z,32.30
2018-09-20T02:36:28.435Z,32.70
2018-09-20T02:39:01.916Z,32.28
2018-09-20T02:41:35.383Z,31.65
2018-09-20T02:44:08.799Z,32.23
2018-09-20T02:46:42.204Z,32.40
2018-09-20T02:49:15.627Z,32.48
2018-09-20T02:51:49.036Z,31.70
2018-09-20T02:54:22.451Z,31.97
2018-09-20T02:56:55.856Z,31.95
2018-09-20T02:59:29.276Z,32.23
2018-09-20T03:02:02.790Z,31.85
2018-09-20T03:04:36.246Z,32.13
2018-09-20T03:07:09.647Z,32.35
2018-09-20T03:09:43.071Z,32.67
2018-09-20T03:12:17.550Z,32.53
2018-09-20T03:14:50.977Z,32.50
2018-09-20T03:17:24.397Z,32.67
2018-09-20T03:19:57.863Z,32.67
2018-09-20T03:22:31.340Z,31.85
2018-09-20T03:25:04.899Z,32.25
2018-09-20T03:27:38.318Z,32.23
2018-09-20T03:30:11.795Z,33.15
2018-09-20T03:32:45.296Z,32.53
2018-09-20T03:35:18.728Z,32.55
2018-09-20T03:37:52.123Z,31.50
2018-09-20T03:40:26.121Z,32.35
2018-09-20T03:42:59.514Z,31.65
2018-09-20T03:45:32.907Z,32.40
2018-09-20T03:48:06.339Z,32.75
2018-09-20T03:50:39.783Z,32.80
2018-09-20T03:53:13.203Z,32.20
2018-09-20T03:55:46.597Z,32.75
2018-09-20T03:58:19.965Z,32.40
2018-09-20T04:00:53.352Z,32.30
2018-09-20T04:03:26.727Z,32.80
2018-09-20T04:06:00.112Z,32.88
2018-09-20T04:08:33.479Z,32.28
2018-09-20T04:11:06.880Z,32.55
2018-09-20T04:13:40.260Z,32.73
2018-09-20T04:16:13.693Z,31.97
2018-09-20T04:18:47.059Z,32.15
2018-09-20T04:21:28.787Z,31.90
2018-09-20T04:24:03.407Z,33.45
2018-09-20T04:26:36.790Z,32.88
2018-09-20T04:29:11.202Z,32.35
2018-09-20T04:31:44.645Z,32.63
2018-09-20T04:34:17.980Z,31.65
2018-09-20T04:36:51.367Z,32.42
2018-09-20T04:39:24.755Z,32.48
2018-09-20T04:41:58.146Z,32.42
2018-09-20T04:44:31.599Z,32.15
2018-09-20T04:47:05.319Z,32.58
2018-09-20T04:49:38.686Z,32.15
2018-09-20T04:52:12.066Z,31.80
2018-09-20T04:54:45.434Z,32.73
2018-09-20T04:57:18.835Z,32.08
2018-09-20T04:59:52.211Z,32.03
2018-09-20T05:02:25.613Z,32.40
2018-09-20T05:04:58.979Z,31.95
2018-09-20T05:07:32.363Z,32.75
2018-09-20T05:10:05.771Z,32.80
2018-09-20T05:12:39.170Z,32.03
2018-09-20T05:15:12.544Z,32.65
2018-09-20T05:17:45.931Z,32.73
2018-09-20T05:20:19.411Z,32.63
2018-09-20T05:22:52.752Z,33.18
2018-09-20T05:25:26.123Z,32.70
2018-09-20T05:27:59.531Z,34.00
2018-09-20T05:30:32.919Z,32.42
2018-09-20T05:33:06.460Z,32.30
2018-09-20T05:35:39.973Z,32.78
2018-09-20T05:38:13.352Z,33.58
2018-09-20T05:40:46.754Z,33.18
2018-09-20T05:43:20.255Z,33.15
2018-09-20T05:45:53.618Z,33.20
2018-09-20T05:48:26.998Z,33.40
2018-09-20T05:51:00.391Z,33.75
2018-09-20T05:53:33.810Z,33.95
2018-09-20T05:56:07.182Z,33.53
2018-09-20T05:58:40.609Z,32.33
2018-09-20T06:01:13.995Z,32.35
2018-09-20T06:03:47.419Z,32.35
2018-09-20T06:06:20.790Z,32.93
2018-09-20T06:08:55.251Z,33.13
2018-09-20T06:11:28.622Z,33.45
2018-09-20T06:14:02.026Z,33.48
2018-09-20T06:16:35.403Z,32.75
2018-09-20T06:19:08.808Z,33.08
2018-09-20T06:21:42.194Z,33.53
2018-09-20T06:24:15.591Z,33.63
2018-09-20T06:26:48.995Z,32.70
2018-09-20T06:29:22.403Z,32.78
2018-09-20T06:31:55.835Z,32.90
2018-09-20T06:34:29.239Z,32.65
2018-09-20T06:37:02.651Z,32.67
2018-09-20T06:39:36.058Z,33.83
2018-09-20T06:42:09.488Z,33.55
2018-09-20T06:44:44.552Z,34.23
2018-09-20T06:47:17.947Z,34.55
2018-09-20T06:49:51.335Z,34.20
2018-09-20T06:52:24.699Z,33.30
2018-09-20T06:54:58.095Z,33.95
2018-09-20T06:57:34.358Z,33.02
2018-09-20T07:00:08.230Z,32.55
2018-09-20T07:02:41.603Z,32.78
2018-09-20T07:05:14.995Z,32.78
2018-09-20T07:07:48.370Z,33.63
2018-09-20T07:10:21.774Z,33.95
2018-09-20T07:12:55.248Z,33.45
2018-09-20T07:15:29.031Z,33.48
2018-09-20T07:18:02.410Z,33.08
2018-09-20T07:20:35.810Z,33.33
2018-09-20T07:23:09.183Z,33.10
2018-09-20T07:25:42.623Z,33.63
2018-09-20T07:28:16.002Z,33.35
2018-09-20T07:30:49.395Z,33.28
2018-09-20T07:33:22.762Z,34.00
2018-09-20T07:35:56.318Z,32.80
2018-09-20T07:38:29.710Z,34.43
2018-09-20T07:41:03.154Z,33.63
2018-09-20T07:43:36.618Z,34.53
2018-09-20T07:46:10.074Z,34.23
2018-09-20T07:48:43.451Z,34.13
2018-09-20T07:51:16.845Z,33.92
2018-09-20T07:53:50.221Z,34.15
2018-09-20T07:56:23.639Z,33.95
2018-09-20T07:58:57.112Z,34.15
2018-09-20T08:01:30.508Z,33.63
2018-09-20T08:04:03.910Z,33.70
2018-09-20T08:06:37.299Z,34.25
2018-09-20T08:09:12.011Z,33.85
2018-09-20T08:11:45.411Z,33.53
2018-09-20T08:14:18.806Z,33.70
2018-09-20T08:16:52.230Z,34.48
2018-09-20T08:19:25.647Z,34.13
2018-09-20T08:21:59.042Z,34.38
2018-09-20T08:24:32.602Z,34.38
2018-09-20T08:27:05.982Z,35.30
2018-09-20T08:29:39.385Z,34.78
2018-09-20T08:32:12.783Z,35.58
2018-09-20T08:34:46.189Z,36.33
2018-09-20T08:37:19.635Z,36.80
2018-09-20T08:39:53.011Z,36.45
2018-09-20T08:42:26.391Z,37.03
2018-09-20T08:44:59.778Z,35.55
2018-09-20T08:47:33.162Z,35.50
2018-09-20T08:50:07.320Z,35.65
2018-09-20T08:52:40.691Z,34.27
2018-09-20T08:55:14.075Z,35.13
2018-09-20T08:57:51.426Z,35.20
2018-09-20T09:00:25.408Z,35.00
2018-09-20T09:02:58.775Z,35.73
2018-09-20T09:05:32.162Z,35.03
2018-09-20T09:08:05.574Z,35.17
2018-09-20T09:10:38.959Z,34.92
2018-09-20T09:13:12.336Z,34.78
2018-09-20T09:15:45.725Z,35.28
2018-09-20T09:18:19.119Z,35.15
2018-09-20T09:20:52.510Z,34.38
2018-09-20T09:23:25.908Z,34.90
2018-09-20T09:25:59.308Z,34.80
2018-09-20T09:28:32.684Z,34.92
2018-09-20T09:31:06.090Z,35.38
2018-09-20T09:33:39.463Z,35.58
2018-09-20T09:36:12.907Z,34.58
2018-09-20T09:38:46.295Z,35.17
2018-09-20T09:41:19.685Z,34.48
2018-09-20T09:43:53.227Z,35.13
2018-09-20T09:46:26.616Z,34.15
2018-09-20T09:48:59.979Z,35.28
2018-09-20T09:51:33.395Z,34.75
2018-09-20T09:54:06.799Z,34.03
2018-09-20T09:56:40.186Z,34.10
2018-09-20T09:59:13.868Z,34.58
2018-09-20T10:01:47.331Z,34.92
2018-09-20T10:04:20.698Z,34.92
2018-09-20T10:06:54.128Z,34.08
2018-09-20T10:09:27.482Z,34.75
2018-09-20T10:12:00.942Z,34.40
2018-09-20T10:14:34.314Z,33.63
2018-09-20T10:17:07.747Z,33.88
2018-09-20T10:19:41.115Z,33.25
2018-09-20T10:22:14.515Z,34.13
2018-09-20T10:24:47.975Z,32.70
2018-09-20T10:27:21.367Z,33.73
2018-09-20T10:29:54.735Z,33.45
2018-09-20T10:32:28.126Z,33.48
2018-09-20T10:35:01.755Z,33.48
2018-09-20T10:37:35.588Z,33.05
2018-09-20T10:40:09.132Z,33.02
2018-09-20T10:42:42.518Z,33.18
2018-09-20T10:45:15.894Z,33.28
2018-09-20T10:47:49.287Z,32.90
2018-09-20T10:50:22.660Z,33.23
2018-09-20T10:52:56.046Z,32.70
2018-09-20T10:55:29.416Z,33.02
2018-09-20T10:58:02.866Z,33.05
2018-09-20T11:00:36.226Z,33.50
2018-09-20T11:03:09.639Z,33.15
2018-09-20T11:05:43.003Z,33.90
2018-09-20T11:08:16.396Z,33.33
2018-09-20T11:10:49.906Z,32.80
2018-09-20T11:13:23.270Z,32.83
2018-09-20T11:16:01.212Z,33.13
2018-09-20T11:18:34.726Z,33.35
2018-09-20T11:21:08.190Z,34.00
2018-09-20T11:23:41.825Z,33.88
2018-09-20T11:26:16.015Z,33.35
2018-09-20T11:28:49.409Z,33.00
2018-09-20T11:31:23.999Z,33.63
2018-09-20T11:33:57.601Z,33.33
2018-09-20T11:36:33.288Z,33.63
2018-09-20T11:39:08.501Z,33.45
2018-09-20T11:41:41.882Z,33.35
2018-09-20T11:44:16.477Z,33.48
2018-09-20T11:46:49.850Z,33.23
2018-09-20T11:49:23.249Z,33.38
2018-09-20T11:51:56.691Z,33.65
2018-09-20T11:54:30.078Z,33.40
2018-09-20T11:57:03.451Z,33.63
2018-09-20T11:59:36.855Z,32.88
2018-09-20T12:02:10.254Z,33.53
2018-09-20T12:04:43.664Z,33.18
2018-09-20T12:07:17.048Z,32.65
2018-09-20T12:09:50.454Z,33.05
2018-09-20T12:12:23.820Z,32.98
2018-09-20T12:14:57.211Z,33.02
2018-09-20T12:17:30.587Z,32.45
2018-09-20T12:20:04.090Z,32.70
2018-09-20T12:22:37.462Z,32.38
2018-09-20T12:25:10.873Z,32.63
2018-09-20T12:27:44.247Z,32.75
2018-09-20T12:30:17.659Z,32.93
2018-09-20T12:32:51.075Z,33.15
2018-09-20T12:35:24.482Z,32.78
2018-09-20T12:37:57.856Z,32.42
2018-09-20T12:40:31.353Z,32.28
2018-09-20T12:43:04.766Z,33.02
2018-09-20T12:45:38.155Z,32.93
2018-09-20T12:48:11.586Z,32.58
2018-09-20T12:50:45.042Z,32.63
2018-09-20T12:53:18.510Z,32.23
2018-09-20T13:00:17.658Z,32.55
2018-09-20T13:02:54.919Z,34.05
2018-09-20T13:05:28.351Z,33.15
2018-09-20T13:08:01.719Z,33.33
2018-09-20T13:10:35.147Z,33.13
2018-09-20T13:13:08.891Z,32.88
2018-09-20T13:15:42.294Z,32.65
2018-09-20T13:18:15.679Z,33.15
2018-09-20T13:20:49.129Z,32.70
2018-09-20T13:23:22.495Z,33.05
2018-09-20T13:25:55.910Z,32.83
2018-09-20T13:28:29.277Z,33.60
2018-09-20T13:31:02.680Z,32.90
2018-09-20T13:33:36.047Z,32.60
2018-09-20T13:36:09.443Z,33.33
2018-09-20T13:38:42.853Z,33.30
2018-09-20T13:41:16.336Z,32.53
2018-09-20T13:43:49.753Z,32.55
2018-09-20T13:46:23.182Z,32.67
2018-09-20T13:48:56.558Z,33.02
2018-09-20T13:51:31.318Z,32.73
2018-09-20T13:54:04.733Z,32.45
2018-09-20T13:56:38.174Z,32.90
2018-09-20T13:59:11.530Z,32.58
2018-09-20T14:01:44.918Z,33.05
2018-09-20T14:04:18.293Z,32.42
2018-09-20T14:06:51.675Z,32.25
2018-09-20T14:09:25.042Z,33.23
2018-09-20T14:11:58.434Z,32.13
2018-09-20T14:14:31.943Z,32.88
2018-09-20T14:17:05.588Z,32.83
2018-09-20T14:19:38.970Z,33.08
2018-09-20T14:22:12.365Z,33.23
2018-09-20T14:24:45.763Z,33.08
2018-09-20T14:27:19.152Z,32.70
2018-09-20T14:29:52.514Z,32.48
2018-09-20T14:32:25.890Z,33.08
2018-09-20T14:34:59.363Z,32.65
2018-09-20T14:37:32.748Z,32.48
2018-09-20T14:40:06.150Z,32.88
2018-09-20T14:42:39.548Z,32.55
2018-09-20T14:45:13.002Z,32.48
2018-09-20T14:47:46.372Z,33.02
2018-09-20T14:50:19.738Z,32.88
2018-09-20T14:52:53.140Z,33.18
2018-09-20T14:55:26.648Z,32.83
2018-09-20T14:58:00.043Z,33.10
2018-09-20T15:00:35.474Z,32.55
2018-09-20T15:03:08.851Z,32.85
2018-09-20T15:05:42.259Z,32.55
2018-09-20T15:08:15.730Z,32.80
2018-09-20T15:10:49.156Z,32.35
2018-09-20T15:13:22.562Z,33.53
2018-09-20T15:15:56.003Z,32.85
2018-09-20T15:18:29.393Z,32.85
2018-09-20T15:21:02.847Z,32.65
2018-09-20T15:23:36.235Z,32.80
2018-09-20T15:26:09.598Z,33.00
2018-09-20T15:29:14.795Z,32.45
2018-09-20T15:31:48.188Z,32.88
2018-09-20T15:34:21.551Z,32.83
2018-09-20T15:36:54.985Z,32.45
2018-09-20T15:39:28.376Z,32.45
2018-09-20T15:42:01.763Z,32.20
2018-09-20T15:44:35.170Z,32.60
2018-09-20T15:47:08.695Z,32.50
2018-09-20T15:49:42.071Z,32.65
2018-09-20T15:52:15.451Z,32.03
2018-09-20T15:54:48.859Z,32.45
2018-09-20T15:57:22.247Z,32.93
2018-09-20T15:59:56.015Z,32.90
2018-09-20T16:02:29.467Z,32.33
2018-09-20T16:05:02.867Z,32.93
2018-09-20T16:07:36.263Z,33.00
2018-09-20T16:10:09.790Z,33.00
2018-09-20T16:12:43.255Z,32.63
2018-09-20T16:15:16.649Z,32.28
2018-09-20T16:17:50.043Z,32.83
2018-09-20T16:20:23.411Z,32.65
2018-09-20T16:22:56.795Z,32.67
2018-09-20T16:25:30.154Z,32.95
2018-09-20T16:28:14.244Z,32.70
2018-09-20T16:31:14.422Z,32.30
2018-09-20T16:35:59.563Z,32.45
2018-09-20T16:38:41.051Z,32.58
2018-09-20T16:41:18.891Z,32.73
2018-09-20T16:43:52.279Z,33.20
2018-09-20T16:46:25.650Z,32.90
2018-09-20T16:48:59.080Z,32.85
2018-09-20T16:51:32.469Z,33.33
2018-09-20T16:54:05.929Z,32.65
2018-09-20T16:56:39.310Z,33.25
2018-09-20T16:59:12.694Z,33.42
2018-09-20T17:01:46.155Z,33.35
2018-09-20T17:04:19.646Z,32.98
2018-09-20T17:06:53.064Z,33.63
2018-09-20T17:09:26.475Z,34.20
2018-09-20T17:11:59.846Z,33.18
2018-09-20T17:14:33.266Z,34.10
2018-09-20T17:17:06.627Z,33.67
2018-09-20T17:19:40.026Z,33.50
2018-09-20T17:22:13.401Z,33.30
2018-09-20T17:24:48.766Z,33.28
2018-09-20T17:27:29.489Z,33.45
2018-09-20T17:30:02.924Z,33.98
2018-09-20T17:32:39.453Z,32.88
2018-09-20T17:35:15.742Z,33.58
2018-09-20T17:37:50.916Z,33.73
2018-09-20T17:40:26.177Z,33.90
2018-09-20T17:43:02.136Z,33.58
2018-09-20T17:45:35.528Z,34.25
2018-09-20T17:48:09.340Z,33.45
2018-09-20T17:50:42.835Z,33.63
2018-09-20T17:53:16.531Z,33.50
2018-09-20T17:55:50.307Z,33.38
2018-09-20T17:58:24.059Z,33.35
2018-09-20T18:00:58.930Z,33.65
2018-09-20T18:03:33.589Z,33.58
2018-09-20T18:06:07.019Z,33.20
2018-09-20T18:08:41.058Z,33.05
2018-09-20T18:11:14.766Z,33.48
2018-09-20T18:13:48.580Z,33.98
2018-09-20T18:16:22.211Z,33.65
2018-09-20T18:18:55.583Z,33.67
2018-09-20T18:21:29.010Z,33.55
2018-09-20T18:24:02.403Z,33.80
2018-09-20T18:26:35.791Z,33.67
2018-09-20T18:29:09.169Z,33.80
2018-09-20T18:31:42.569Z,33.28
2018-09-20T18:34:16.043Z,33.98
2018-09-20T18:36:49.411Z,33.40
2018-09-20T18:39:22.879Z,33.35
2018-09-20T18:41:56.338Z,33.73
2018-09-20T18:44:29.723Z,33.58
2018-09-20T18:47:03.110Z,34.03
2018-09-20T18:49:36.563Z,32.93
2018-09-20T18:52:09.979Z,33.75
2018-09-20T18:54:43.430Z,33.38
2018-09-20T18:57:16.875Z,33.08
2018-09-20T18:59:50.242Z,32.65
2018-09-20T19:02:23.664Z,33.58
2018-09-20T19:04:57.175Z,33.28
2018-09-20T19:07:30.708Z,33.50
2018-09-20T19:10:04.060Z,33.63
2018-09-20T19:12:37.672Z,33.70
2018-09-20T19:15:11.392Z,33.88
2018-09-20T19:17:44.787Z,33.78
2018-09-20T19:20:18.159Z,33.42
2018-09-20T19:22:51.602Z,33.55
2018-09-20T19:25:25.026Z,33.35
2018-09-20T19:27:58.431Z,33.42
2018-09-20T19:30:31.835Z,33.20
2018-09-20T19:33:05.295Z,33.18
2018-09-20T19:35:38.675Z,33.85
2018-09-20T19:38:12.071Z,33.25
2018-09-20T19:40:45.454Z,33.98
2018-09-20T19:43:18.987Z,33.48
2018-09-20T19:45:52.444Z,33.85
2018-09-20T19:48:25.830Z,33.53
2018-09-20T19:50:59.235Z,33.02
2018-09-20T19:53:32.870Z,33.40
2018-09-20T19:56:06.264Z,32.95
2018-09-20T19:58:39.668Z,33.63
2018-09-20T20:01:13.055Z,33.85
2018-09-20T20:03:46.441Z,33.50
2018-09-20T20:06:19.883Z,33.42
2018-09-20T20:08:53.411Z,33.28
2018-09-20T20:11:26.886Z,33.30
2018-09-20T20:14:00.275Z,32.98
2018-09-20T20:16:33.662Z,33.75
2018-09-20T20:19:07.378Z,33.18
2018-09-20T20:21:40.789Z,33.25
2018-09-20T20:24:14.195Z,33.42
2018-09-20T20:26:47.571Z,33.83
2018-09-20T20:29:20.968Z,33.28
2018-09-20T20:31:54.371Z,33.50
2018-09-20T20:34:27.762Z,33.20
2018-09-20T20:37:01.127Z,33.45
2018-09-20T20:39:34.539Z,33.23
2018-09-20T20:42:07.906Z,33.70
2018-09-20T20:44:41.298Z,33.88
2018-09-20T20:47:14.663Z,33.83
2018-09-20T20:49:48.068Z,33.45
2018-09-20T20:52:21.444Z,33.85
2018-09-20T20:54:54.830Z,33.75
2018-09-20T20:57:28.208Z,33.30
2018-09-20T21:00:01.603Z,33.23
2018-09-20T21:02:34.976Z,33.75
2018-09-20T21:05:08.397Z,33.33
2018-09-20T21:07:41.887Z,33.80
2018-09-20T21:10:15.275Z,33.95
2018-09-20T21:12:48.651Z,33.65
2018-09-20T21:15:22.036Z,33.53
2018-09-20T21:17:55.412Z,33.80
2018-09-20T21:20:28.800Z,34.05
2018-09-20T21:23:02.219Z,33.65
2018-09-20T21:25:35.598Z,33.70
2018-09-20T21:28:08.975Z,33.20
2018-09-20T21:30:42.363Z,34.13
2018-09-20T21:33:15.731Z,33.02
2018-09-20T21:35:49.134Z,33.40
2018-09-20T21:38:22.498Z,33.85
2018-09-20T21:40:55.919Z,33.73
2018-09-20T21:43:29.484Z,33.20
2018-09-20T21:46:02.867Z,33.10
2018-09-20T21:48:36.251Z,33.28
2018-09-20T21:51:09.668Z,33.42
2018-09-20T21:53:43.024Z,32.58
2018-09-20T21:56:16.483Z,32.75
2018-09-20T21:58:49.903Z,33.55
2018-09-20T22:01:23.264Z,33.78
2018-09-20T22:03:56.632Z,33.75
2018-09-20T22:06:30.023Z,33.33
2018-09-20T22:09:04.879Z,35.10
2018-09-20T22:11:38.727Z,34.85
2018-09-20T22:14:21.886Z,34.45
2018-09-20T22:16:55.276Z,34.78
2018-09-20T22:19:28.639Z,34.03
2018-09-20T22:22:02.023Z,34.83
2018-09-20T22:27:23.753Z,35.17
2018-09-20T22:29:59.383Z,35.05
2018-09-20T22:32:33.430Z,35.70
2018-09-20T22:35:06.930Z,35.15
2018-09-20T22:37:40.358Z,36.42
2018-09-20T22:40:13.760Z,35.40
2018-09-20T22:42:47.146Z,35.90
2018-09-20T22:45:20.536Z,35.58
2018-09-20T22:47:53.926Z,35.30
2018-09-20T22:50:27.311Z,35.30
2018-09-20T22:53:00.682Z,35.68
2018-09-20T22:55:34.091Z,35.28
2018-09-20T22:58:07.462Z,34.65
2018-09-20T23:00:40.844Z,34.40
2018-09-20T23:03:17.902Z,35.52
2018-09-20T23:05:51.295Z,34.08
2018-09-20T23:08:24.660Z,34.67
2018-09-20T23:10:58.463Z,34.13
2018-09-20T23:13:32.919Z,34.45
2018-09-20T23:16:06.482Z,34.15
2018-09-20T23:18:39.851Z,34.58
2018-09-20T23:21:13.258Z,34.20
2018-09-20T23:23:46.620Z,33.95
2018-09-20T23:26:20.239Z,34.05
2018-09-20T23:28:54.243Z,33.92
2018-09-20T23:31:27.627Z,34.53
2018-09-20T23:34:01.366Z,34.05
2018-09-20T23:36:34.751Z,34.75
2018-09-20T23:39:10.251Z,34.05
2018-09-20T23:41:43.641Z,34.43
2018-09-20T23:44:17.019Z,34.18
2018-09-20T23:46:50.411Z,33.98
2018-09-20T23:49:23.774Z,34.50
2018-09-20T23:51:57.170Z,33.60
2018-09-20T23:54:30.601Z,34.45
2018-09-20T23:57:03.995Z,33.65
2018-09-20T23:59:37.375Z,34.13
